Christian Radich — LJLM — position and weather

sailwx.info

Track history (hours):
 
Tides and Currents Weather Stations Pressure Air Temp Water Temp Dewpoint Dewpoint Depression Visibility Wind Speed Wind Dir Waves Ship Positions

Christian Radich (Norway)

Last reported at 2019-Dec-12 07:27 UTC. Time now 2019-Dec-12 08:14 UTC.
Position N 28°09' W 015°26'.

Length 63 m; draft 5 m.

Type: Sailing vessel. MMSI: 258373000.

Date/timePositionNaut miles runAvg speedWind from/ knotsBaromVisibWave heightAir tempDewpointWater temp
2019-Dec-12 07:27N 28°09' W 015°26'0 0.0
2019-Dec-12 06:01N 28°09' W 015°26'0 0.0
2019-Dec-12 04:26N 28°09' W 015°26'0 0.0
2019-Dec-12 02:00N 28°09' W 015°26'0 0.0
2019-Dec-12 01:28N 28°09' W 015°26'0 0.0
2019-Dec-12 00:25N 28°09' W 015°26'0 0.0
2019-Dec-11 23:59N 28°09' W 015°26'0 0.0
2019-Dec-11 22:24N 28°09' W 015°26'0 0.0
2019-Dec-11 20:55N 28°09' W 015°26'0 0.0
2019-Dec-11 19:29N 28°09' W 015°26'0 0.0
2019-Dec-11 10:58N 28°09' W 015°26'0 0.0
2019-Dec-11 09:00N 28°09' W 015°26'0 0.0
2019-Dec-11 07:31N 28°09' W 015°26'0 0.0
2019-Dec-11 05:53N 28°09' W 015°26'0 0.0
2019-Dec-11 04:27N 28°09' W 015°26'0 0.0
2019-Dec-11 03:30N 28°09' W 015°26'0 0.0
2019-Dec-11 02:58N 28°09' W 015°26'0 0.0
2019-Dec-10 23:00N 28°09' W 015°26'0 0.0
2019-Dec-10 21:58N 28°09' W 015°26'0 0.0
2019-Dec-10 20:29N 28°09' W 015°26'0 0.0
2019-Dec-10 18:30N 28°09' W 015°26'0 0.0
2019-Dec-10 16:29N 28°09' W 015°26'0 0.0
2019-Dec-10 14:27N 28°09' W 015°26'0 0.0
2019-Dec-10 12:58N 28°09' W 015°26'0 0.0
2019-Dec-10 12:28N 28°09' W 015°26'0 0.0
2019-Dec-10 11:29N 28°09' W 015°26'0 0.0
2019-Dec-10 10:29N 28°09' W 015°26'0 0.0
2019-Dec-10 09:30N 28°09' W 015°26'0 0.0
2019-Dec-10 09:00N 28°09' W 015°26'0 0.0
2019-Dec-10 06:29N 28°09' W 015°26'0 0.0
2019-Dec-10 04:30N 28°09' W 015°26'0 0.0
2019-Dec-10 03:28N 28°09' W 015°26'0 0.0
2019-Dec-10 02:59N 28°09' W 015°26'0 0.0
2019-Dec-10 01:59N 28°09' W 015°26'0 0.0
2019-Dec-09 21:59N 28°09' W 015°26'0 0.0
2019-Dec-09 21:00N 28°09' W 015°26'0 0.0
2019-Dec-09 20:30N 28°09' W 015°26'0 0.0
2019-Dec-09 20:00N 28°09' W 015°26'2 1.1
2019-Dec-09 18:00N 28°07' W 015°24'  
2019-Dec-04 09:30N 28°22' W 016°08'6 6.4
2019-Dec-04 08:30N 28°27' W 016°04'11 5.7
2019-Dec-04 06:30N 28°32' W 015°52'7 7.2
2019-Dec-04 05:30N 28°30' W 015°44'4 7.3
2019-Dec-04 05:00N 28°29' W 015°40'6 6.0
2019-Dec-04 04:00N 28°27' W 015°34'3 6.2
2019-Dec-04 03:30N 28°26' W 015°30'6 6.4
2019-Dec-04 02:30N 28°23' W 015°24'3 5.2
2019-Dec-04 02:00N 28°21' W 015°24'8 5.2
2019-Dec-04 00:30N 28°13' W 015°23'5 4.7
2019-Dec-03 23:30N 28°08' W 015°23'3 1.3
2019-Dec-03 21:29N 28°09' W 015°26'0 0.0
2019-Dec-03 20:56N 28°09' W 015°26'0 0.0
2019-Dec-03 20:29N 28°09' W 015°26'0 0.0
2019-Dec-03 20:00N 28°09' W 015°26'0 0.0
2019-Dec-03 16:59N 28°09' W 015°26'0 0.0
2019-Dec-03 14:57N 28°09' W 015°26'0 0.0
2019-Dec-03 13:28N 28°09' W 015°26'0 0.0
2019-Dec-03 11:26N 28°09' W 015°26'0 0.0
2019-Dec-03 09:28N 28°09' W 015°26'0 0.0
2019-Dec-03 08:58N 28°09' W 015°26'0 0.0
2019-Dec-03 08:28N 28°09' W 015°26'0 0.0
2019-Dec-03 07:29N 28°09' W 015°26'0 0.0
2019-Dec-03 06:30N 28°09' W 015°26'0 0.0
2019-Dec-03 05:27N 28°09' W 015°26'0 0.0
2019-Dec-03 04:25N 28°09' W 015°26'0 0.0
2019-Dec-03 03:58N 28°09' W 015°26'0 0.0
2019-Dec-03 03:29N 28°09' W 015°26'0 0.0
2019-Dec-03 00:28N 28°09' W 015°26'0 0.0
2019-Dec-02 22:59N 28°09' W 015°26'0 0.0
2019-Dec-02 22:26N 28°09' W 015°26'0 0.0
2019-Dec-02 21:27N 28°09' W 015°26'0 0.0
2019-Dec-02 19:22N 28°09' W 015°26'0 0.0
2019-Dec-02 18:58N 28°09' W 015°26'0 0.0
2019-Dec-02 18:29N 28°09' W 015°26'0 0.0
2019-Dec-02 17:29N 28°09' W 015°26'0 0.0
2019-Dec-02 17:00N 28°09' W 015°26'0 0.0
2019-Dec-02 16:00N 28°09' W 015°26'0 0.0
2019-Dec-02 12:59N 28°09' W 015°26'0 0.0
2019-Dec-02 11:30N 28°09' W 015°26'0 0.0
2019-Dec-02 08:23N 28°09' W 015°26'0 0.0
2019-Dec-02 07:27N 28°09' W 015°26'  
Track history (hours):
 
Tides and Currents Weather Stations Pressure Air Temp Water Temp Dewpoint Dewpoint Depression Visibility Wind Speed Wind Dir Waves Ship Positions

Christian Radich (Norway)

Last reported at 2019-Dec-12 07:27 UTC. Time now 2019-Dec-12 08:14 UTC.
Position N 28°09' W 015°26'.

Length 63 m; draft 5 m.

Type: Sailing vessel. MMSI: 258373000.

Date/timePositionNaut miles runAvg speedWind from/ knotsBaromVisibWave heightAir tempDewpointWater temp
2019-Dec-12 07:27N 28°09' W 015°26'0 0.0
2019-Dec-12 06:01N 28°09' W 015°26'0 0.0
2019-Dec-12 04:26N 28°09' W 015°26'0 0.0
2019-Dec-12 02:00N 28°09' W 015°26'0 0.0
2019-Dec-12 01:28N 28°09' W 015°26'0 0.0
2019-Dec-12 00:25N 28°09' W 015°26'0 0.0
2019-Dec-11 23:59N 28°09' W 015°26'0 0.0
2019-Dec-11 22:24N 28°09' W 015°26'0 0.0
2019-Dec-11 20:55N 28°09' W 015°26'0 0.0
2019-Dec-11 19:29N 28°09' W 015°26'0 0.0
2019-Dec-11 10:58N 28°09' W 015°26'0 0.0
2019-Dec-11 09:00N 28°09' W 015°26'0 0.0
2019-Dec-11 07:31N 28°09' W 015°26'0 0.0
2019-Dec-11 05:53N 28°09' W 015°26'0 0.0
2019-Dec-11 04:27N 28°09' W 015°26'0 0.0
2019-Dec-11 03:30N 28°09' W 015°26'0 0.0
2019-Dec-11 02:58N 28°09' W 015°26'0 0.0
2019-Dec-10 23:00N 28°09' W 015°26'0 0.0
2019-Dec-10 21:58N 28°09' W 015°26'0 0.0
2019-Dec-10 20:29N 28°09' W 015°26'0 0.0
2019-Dec-10 18:30N 28°09' W 015°26'0 0.0
2019-Dec-10 16:29N 28°09' W 015°26'0 0.0
2019-Dec-10 14:27N 28°09' W 015°26'0 0.0
2019-Dec-10 12:58N 28°09' W 015°26'0 0.0
2019-Dec-10 12:28N 28°09' W 015°26'0 0.0
2019-Dec-10 11:29N 28°09' W 015°26'0 0.0
2019-Dec-10 10:29N 28°09' W 015°26'0 0.0
2019-Dec-10 09:30N 28°09' W 015°26'0 0.0
2019-Dec-10 09:00N 28°09' W 015°26'0 0.0
2019-Dec-10 06:29N 28°09' W 015°26'0 0.0
2019-Dec-10 04:30N 28°09' W 015°26'0 0.0
2019-Dec-10 03:28N 28°09' W 015°26'0 0.0
2019-Dec-10 02:59N 28°09' W 015°26'0 0.0
2019-Dec-10 01:59N 28°09' W 015°26'0 0.0
2019-Dec-09 21:59N 28°09' W 015°26'0 0.0
2019-Dec-09 21:00N 28°09' W 015°26'0 0.0
2019-Dec-09 20:30N 28°09' W 015°26'0 0.0
2019-Dec-09 20:00N 28°09' W 015°26'2 1.1
2019-Dec-09 18:00N 28°07' W 015°24'  
2019-Dec-04 09:30N 28°22' W 016°08'6 6.4
2019-Dec-04 08:30N 28°27' W 016°04'11 5.7
2019-Dec-04 06:30N 28°32' W 015°52'7 7.2
2019-Dec-04 05:30N 28°30' W 015°44'4 7.3
2019-Dec-04 05:00N 28°29' W 015°40'6 6.0
2019-Dec-04 04:00N 28°27' W 015°34'3 6.2
2019-Dec-04 03:30N 28°26' W 015°30'6 6.4
2019-Dec-04 02:30N 28°23' W 015°24'3 5.2
2019-Dec-04 02:00N 28°21' W 015°24'8 5.2
2019-Dec-04 00:30N 28°13' W 015°23'5 4.7
2019-Dec-03 23:30N 28°08' W 015°23'3 1.3
2019-Dec-03 21:29N 28°09' W 015°26'0 0.0
2019-Dec-03 20:56N 28°09' W 015°26'0 0.0
2019-Dec-03 20:29N 28°09' W 015°26'0 0.0
2019-Dec-03 20:00N 28°09' W 015°26'0 0.0
2019-Dec-03 16:59N 28°09' W 015°26'0 0.0
2019-Dec-03 14:57N 28°09' W 015°26'0 0.0
2019-Dec-03 13:28N 28°09' W 015°26'0 0.0
2019-Dec-03 11:26N 28°09' W 015°26'0 0.0
2019-Dec-03 09:28N 28°09' W 015°26'0 0.0
2019-Dec-03 08:58N 28°09' W 015°26'0 0.0
2019-Dec-03 08:28N 28°09' W 015°26'0 0.0
2019-Dec-03 07:29N 28°09' W 015°26'0 0.0
2019-Dec-03 06:30N 28°09' W 015°26'0 0.0
2019-Dec-03 05:27N 28°09' W 015°26'0 0.0
2019-Dec-03 04:25N 28°09' W 015°26'0 0.0
2019-Dec-03 03:58N 28°09' W 015°26'0 0.0
2019-Dec-03 03:29N 28°09' W 015°26'0 0.0
2019-Dec-03 00:28N 28°09' W 015°26'0 0.0
2019-Dec-02 22:59N 28°09' W 015°26'0 0.0
2019-Dec-02 22:26N 28°09' W 015°26'0 0.0
2019-Dec-02 21:27N 28°09' W 015°26'0 0.0
2019-Dec-02 19:22N 28°09' W 015°26'0 0.0
2019-Dec-02 18:58N 28°09' W 015°26'0 0.0
2019-Dec-02 18:29N 28°09' W 015°26'0 0.0
2019-Dec-02 17:29N 28°09' W 015°26'0 0.0
2019-Dec-02 17:00N 28°09' W 015°26'0 0.0
2019-Dec-02 16:00N 28°09' W 015°26'0 0.0
2019-Dec-02 12:59N 28°09' W 015°26'0 0.0
2019-Dec-02 11:30N 28°09' W 015°26'0 0.0
2019-Dec-02 08:23N 28°09' W 015°26'0 0.0
2019-Dec-02 07:27N 28°09' W 015°26'  

Dump ship's entire track history